sensor_id;sensor_type;location;lat;lon;timestamp;temperature;humidity
23467;DHT22;59740;47.696;11.746;2023-11-19T00:02:01;5.50;99.90
23467;DHT22;59740;47.696;11.746;2023-11-19T00:04:30;5.50;99.90
23467;DHT22;59740;47.696;11.746;2023-11-19T00:07:00;5.40;99.90
23467;DHT22;59740;47.696;11.746;2023-11-19T00:09:32;5.40;99.90
23467;DHT22;59740;47.696;11.746;2023-11-19T00:12:04;5.40;99.90
23467;DHT22;59740;47.696;11.746;2023-11-19T00:14:33;5.40;99.90
23467;DHT22;59740;47.696;11.746;2023-11-19T00:17:03;5.40;99.90
23467;DHT22;59740;47.696;11.746;2023-11-19T00:19:31;5.40;99.90
23467;DHT22;59740;47.696;11.746;2023-11-19T00:22:01;5.40;99.90
23467;DHT22;59740;47.696;11.746;2023-11-19T00:24:31;5.40;99.90
23467;DHT22;59740;47.696;11.746;2023-11-19T00:26:59;5.40;99.90
23467;DHT22;59740;47.696;11.746;2023-11-19T00:29:27;5.40;99.90
23467;DHT22;59740;47.696;11.746;2023-11-19T00:31:56;5.40;99.90
23467;DHT22;59740;47.696;11.746;2023-11-19T00:34:24;5.30;99.90
23467;DHT22;59740;47.696;11.746;2023-11-19T00:36:53;5.30;99.90
23467;DHT22;59740;47.696;11.746;2023-11-19T00:39:23;5.40;99.90
23467;DHT22;59740;47.696;11.746;2023-11-19T00:41:52;5.40;99.90
23467;DHT22;59740;47.696;11.746;2023-11-19T00:44:20;5.40;99.90
23467;DHT22;59740;47.696;11.746;2023-11-19T00:46:49;5.40;99.90
23467;DHT22;59740;47.696;11.746;2023-11-19T00:49:17;5.40;99.90
23467;DHT22;59740;47.696;11.746;2023-11-19T00:51:46;5.40;99.90
23467;DHT22;59740;47.696;11.746;2023-11-19T00:54:14;5.40;99.90
23467;DHT22;59740;47.696;11.746;2023-11-19T00:56:44;5.40;99.90
23467;DHT22;59740;47.696;11.746;2023-11-19T00:59:12;5.40;99.90
23467;DHT22;59740;47.696;11.746;2023-11-19T01:01:41;5.40;99.90
23467;DHT22;59740;47.696;11.746;2023-11-19T01:04:10;5.40;99.90
23467;DHT22;59740;47.696;11.746;2023-11-19T01:06:38;5.40;99.90
23467;DHT22;59740;47.696;11.746;2023-11-19T01:09:15;5.50;99.90
23467;DHT22;59740;47.696;11.746;2023-11-19T01:11:45;5.50;99.90
23467;DHT22;59740;47.696;11.746;2023-11-19T01:14:14;5.50;99.90
23467;DHT22;59740;47.696;11.746;2023-11-19T01:16:42;5.50;99.90
23467;DHT22;59740;47.696;11.746;2023-11-19T01:19:11;5.50;99.90
23467;DHT22;59740;47.696;11.746;2023-11-19T01:21:44;5.50;99.90
23467;DHT22;59740;47.696;11.746;2023-11-19T01:24:13;5.50;99.90
23467;DHT22;59740;47.696;11.746;2023-11-19T01:26:42;5.60;99.90
23467;DHT22;59740;47.696;11.746;2023-11-19T01:29:14;5.60;99.90
23467;DHT22;59740;47.696;11.746;2023-11-19T01:31:43;5.60;99.90
23467;DHT22;59740;47.696;11.746;2023-11-19T01:34:12;5.60;99.90
23467;DHT22;59740;47.696;11.746;2023-11-19T01:36:40;5.60;99.90
23467;DHT22;59740;47.696;11.746;2023-11-19T01:39:09;5.60;99.90
23467;DHT22;59740;47.696;11.746;2023-11-19T01:41:37;5.60;99.90
23467;DHT22;59740;47.696;11.746;2023-11-19T01:44:06;5.60;99.90
23467;DHT22;59740;47.696;11.746;2023-11-19T01:46:36;5.60;99.90
23467;DHT22;59740;47.696;11.746;2023-11-19T01:49:07;5.60;99.90
23467;DHT22;59740;47.696;11.746;2023-11-19T01:51:36;5.60;99.90
23467;DHT22;59740;47.696;11.746;2023-11-19T01:54:04;5.60;99.90
23467;DHT22;59740;47.696;11.746;2023-11-19T01:56:34;5.70;99.90
23467;DHT22;59740;47.696;11.746;2023-11-19T01:59:04;5.70;99.90
23467;DHT22;59740;47.696;11.746;2023-11-19T02:01:32;5.70;99.90
23467;DHT22;59740;47.696;11.746;2023-11-19T02:04:06;5.70;99.90
23467;DHT22;59740;47.696;11.746;2023-11-19T02:06:38;5.70;99.90
23467;DHT22;59740;47.696;11.746;2023-11-19T02:09:09;5.70;99.90
23467;DHT22;59740;47.696;11.746;2023-11-19T02:11:39;5.60;99.90
23467;DHT22;59740;47.696;11.746;2023-11-19T02:14:08;5.60;99.90
23467;DHT22;59740;47.696;11.746;2023-11-19T02:16:36;5.60;99.90
23467;DHT22;59740;47.696;11.746;2023-11-19T02:19:06;5.70;99.90
23467;DHT22;59740;47.696;11.746;2023-11-19T02:21:37;5.70;99.90
23467;DHT22;59740;47.696;11.746;2023-11-19T02:24:08;5.70;99.90
23467;DHT22;59740;47.696;11.746;2023-11-19T02:26:41;5.60;99.90
23467;DHT22;59740;47.696;11.746;2023-11-19T02:29:13;5.60;99.90
23467;DHT22;59740;47.696;11.746;2023-11-19T02:31:42;5.60;99.90
23467;DHT22;59740;47.696;11.746;2023-11-19T02:34:11;5.60;99.90
23467;DHT22;59740;47.696;11.746;2023-11-19T02:36:40;5.60;99.90
23467;DHT22;59740;47.696;11.746;2023-11-19T02:39:09;5.60;99.90
23467;DHT22;59740;47.696;11.746;2023-11-19T02:41:38;5.60;99.90
23467;DHT22;59740;47.696;11.746;2023-11-19T02:44:08;5.60;99.90
23467;DHT22;59740;47.696;11.746;2023-11-19T02:46:37;5.60;99.90
23467;DHT22;59740;47.696;11.746;2023-11-19T02:49:09;5.60;99.90
23467;DHT22;59740;47.696;11.746;2023-11-19T02:51:38;5.60;99.90
23467;DHT22;59740;47.696;11.746;2023-11-19T02:54:06;5.60;99.90
23467;DHT22;59740;47.696;11.746;2023-11-19T02:56:35;5.60;99.90
23467;DHT22;59740;47.696;11.746;2023-11-19T02:59:06;5.70;99.90
23467;DHT22;59740;47.696;11.746;2023-11-19T03:01:44;5.60;99.90
23467;DHT22;59740;47.696;11.746;2023-11-19T03:04:17;5.60;99.90
23467;DHT22;59740;47.696;11.746;2023-11-19T03:06:48;5.60;99.90
23467;DHT22;59740;47.696;11.746;2023-11-19T03:09:16;5.60;99.90
23467;DHT22;59740;47.696;11.746;2023-11-19T03:11:45;5.60;99.90
23467;DHT22;59740;47.696;11.746;2023-11-19T03:14:13;5.70;99.90
23467;DHT22;59740;47.696;11.746;2023-11-19T03:16:46;5.70;99.90
23467;DHT22;59740;47.696;11.746;2023-11-19T03:19:15;5.70;99.90
23467;DHT22;59740;47.696;11.746;2023-11-19T03:21:52;5.70;99.90
23467;DHT22;59740;47.696;11.746;2023-11-19T03:24:21;5.70;99.90
23467;DHT22;59740;47.696;11.746;2023-11-19T03:26:50;5.80;99.90
23467;DHT22;59740;47.696;11.746;2023-11-19T03:29:18;5.80;99.90
23467;DHT22;59740;47.696;11.746;2023-11-19T03:31:48;5.80;99.90
23467;DHT22;59740;47.696;11.746;2023-11-19T03:34:17;5.80;99.90
23467;DHT22;59740;47.696;11.746;2023-11-19T03:36:46;5.80;99.90
23467;DHT22;59740;47.696;11.746;2023-11-19T03:39:15;5.80;99.90
23467;DHT22;59740;47.696;11.746;2023-11-19T03:41:45;5.80;99.90
23467;DHT22;59740;47.696;11.746;2023-11-19T03:44:15;5.90;99.90
23467;DHT22;59740;47.696;11.746;2023-11-19T03:46:43;5.90;99.90
23467;DHT22;59740;47.696;11.746;2023-11-19T03:49:14;5.90;99.90
23467;DHT22;59740;47.696;11.746;2023-11-19T03:51:44;6.00;99.90
23467;DHT22;59740;47.696;11.746;2023-11-19T03:54:13;6.00;99.90
23467;DHT22;59740;47.696;11.746;2023-11-19T03:56:42;6.00;99.90
23467;DHT22;59740;47.696;11.746;2023-11-19T03:59:10;6.00;99.90
23467;DHT22;59740;47.696;11.746;2023-11-19T04:01:39;6.10;99.90
23467;DHT22;59740;47.696;11.746;2023-11-19T04:04:08;6.00;99.90
23467;DHT22;59740;47.696;11.746;2023-11-19T04:06:38;6.10;99.90
23467;DHT22;59740;47.696;11.746;2023-11-19T04:09:06;6.10;99.90
23467;DHT22;59740;47.696;11.746;2023-11-19T04:11:36;6.10;99.90
23467;DHT22;59740;47.696;11.746;2023-11-19T04:14:04;6.10;99.90
23467;DHT22;59740;47.696;11.746;2023-11-19T04:16:33;6.20;99.90
23467;DHT22;59740;47.696;11.746;2023-11-19T04:19:01;6.20;99.90
23467;DHT22;59740;47.696;11.746;2023-11-19T04:21:30;6.20;99.90
23467;DHT22;59740;47.696;11.746;2023-11-19T04:23:59;6.30;99.90
23467;DHT22;59740;47.696;11.746;2023-11-19T04:26:28;6.30;99.90
23467;DHT22;59740;47.696;11.746;2023-11-19T04:28:58;6.30;99.90
23467;DHT22;59740;47.696;11.746;2023-11-19T04:31:29;6.30;99.90
23467;DHT22;59740;47.696;11.746;2023-11-19T04:33:58;6.40;99.90
23467;DHT22;59740;47.696;11.746;2023-11-19T04:36:27;6.30;99.90
23467;DHT22;59740;47.696;11.746;2023-11-19T04:38:56;6.40;99.90
23467;DHT22;59740;47.696;11.746;2023-11-19T04:41:28;6.40;99.90
23467;DHT22;59740;47.696;11.746;2023-11-19T04:43:56;6.40;99.90
23467;DHT22;59740;47.696;11.746;2023-11-19T04:46:24;6.50;99.90
23467;DHT22;59740;47.696;11.746;2023-11-19T04:48:53;6.50;99.90
23467;DHT22;59740;47.696;11.746;2023-11-19T04:51:22;6.50;99.90
23467;DHT22;59740;47.696;11.746;2023-11-19T04:53:50;6.50;99.90
23467;DHT22;59740;47.696;11.746;2023-11-19T04:56:19;6.60;99.90
23467;DHT22;59740;47.696;11.746;2023-11-19T04:58:51;6.60;99.90
23467;DHT22;59740;47.696;11.746;2023-11-19T05:01:19;6.60;99.90
23467;DHT22;59740;47.696;11.746;2023-11-19T05:03:48;6.70;99.90
23467;DHT22;59740;47.696;11.746;2023-11-19T05:06:18;6.70;99.90
23467;DHT22;59740;47.696;11.746;2023-11-19T05:08:47;6.70;99.90
23467;DHT22;59740;47.696;11.746;2023-11-19T05:11:15;6.70;99.90
23467;DHT22;59740;47.696;11.746;2023-11-19T05:13:45;6.70;99.90
23467;DHT22;59740;47.696;11.746;2023-11-19T05:16:15;6.70;99.90
23467;DHT22;59740;47.696;11.746;2023-11-19T05:18:44;6.80;99.90
23467;DHT22;59740;47.696;11.746;2023-11-19T05:21:13;6.80;99.90
23467;DHT22;59740;47.696;11.746;2023-11-19T05:23:42;6.80;99.90
23467;DHT22;59740;47.696;11.746;2023-11-19T05:26:17;6.70;99.90
23467;DHT22;59740;47.696;11.746;2023-11-19T05:28:46;6.70;99.90
23467;DHT22;59740;47.696;11.746;2023-11-19T05:31:17;6.70;99.90
23467;DHT22;59740;47.696;11.746;2023-11-19T05:33:46;6.80;99.90
23467;DHT22;59740;47.696;11.746;2023-11-19T05:36:14;6.80;99.90
23467;DHT22;59740;47.696;11.746;2023-11-19T05:38:43;6.80;99.90
23467;DHT22;59740;47.696;11.746;2023-11-19T05:41:11;6.80;99.90
23467;DHT22;59740;47.696;11.746;2023-11-19T05:43:40;6.80;99.90
23467;DHT22;59740;47.696;11.746;2023-11-19T05:46:09;6.80;99.90
23467;DHT22;59740;47.696;11.746;2023-11-19T05:48:41;6.70;99.90
23467;DHT22;59740;47.696;11.746;2023-11-19T05:51:10;6.70;99.90
23467;DHT22;59740;47.696;11.746;2023-11-19T05:53:38;6.70;99.90
23467;DHT22;59740;47.696;11.746;2023-11-19T05:56:08;6.70;99.90
23467;DHT22;59740;47.696;11.746;2023-11-19T05:58:37;6.70;99.90
23467;DHT22;59740;47.696;11.746;2023-11-19T06:01:07;6.70;99.90
23467;DHT22;59740;47.696;11.746;2023-11-19T06:03:36;6.80;99.90
23467;DHT22;59740;47.696;11.746;2023-11-19T06:06:08;6.90;99.90
23467;DHT22;59740;47.696;11.746;2023-11-19T06:08:36;6.90;99.90
23467;DHT22;59740;47.696;11.746;2023-11-19T06:11:05;6.90;99.90
23467;DHT22;59740;47.696;11.746;2023-11-19T06:13:33;6.90;99.90
23467;DHT22;59740;47.696;11.746;2023-11-19T06:16:02;6.90;99.90
23467;DHT22;59740;47.696;11.746;2023-11-19T06:18:31;7.00;99.90
23467;DHT22;59740;47.696;11.746;2023-11-19T06:20:59;7.10;99.90
23467;DHT22;59740;47.696;11.746;2023-11-19T06:23:29;7.20;99.90
23467;DHT22;59740;47.696;11.746;2023-11-19T06:25:58;7.20;99.90
23467;DHT22;59740;47.696;11.746;2023-11-19T06:28:26;7.20;99.90
23467;DHT22;59740;47.696;11.746;2023-11-19T06:30:55;7.30;99.90
23467;DHT22;59740;47.696;11.746;2023-11-19T06:33:25;7.40;99.90
23467;DHT22;59740;47.696;11.746;2023-11-19T06:35:54;7.70;99.90
23467;DHT22;59740;47.696;11.746;2023-11-19T06:38:23;7.80;99.90
23467;DHT22;59740;47.696;11.746;2023-11-19T06:40:52;7.90;99.90
23467;DHT22;59740;47.696;11.746;2023-11-19T06:43:21;8.00;99.90
23467;DHT22;59740;47.696;11.746;2023-11-19T06:45:50;8.00;99.90
23467;DHT22;59740;47.696;11.746;2023-11-19T06:48:18;8.10;99.90
23467;DHT22;59740;47.696;11.746;2023-11-19T06:50:47;8.20;99.90
23467;DHT22;59740;47.696;11.746;2023-11-19T06:53:15;8.20;99.90
23467;DHT22;59740;47.696;11.746;2023-11-19T06:55:44;8.30;99.90
23467;DHT22;59740;47.696;11.746;2023-11-19T06:58:14;8.30;99.90
23467;DHT22;59740;47.696;11.746;2023-11-19T07:00:42;8.40;99.90
23467;DHT22;59740;47.696;11.746;2023-11-19T07:03:11;8.40;99.90
23467;DHT22;59740;47.696;11.746;2023-11-19T07:05:40;8.50;99.90
23467;DHT22;59740;47.696;11.746;2023-11-19T07:08:09;8.50;99.90
23467;DHT22;59740;47.696;11.746;2023-11-19T07:10:38;8.60;99.90
23467;DHT22;59740;47.696;11.746;2023-11-19T07:13:07;8.60;99.90
23467;DHT22;59740;47.696;11.746;2023-11-19T07:15:37;8.70;99.90
23467;DHT22;59740;47.696;11.746;2023-11-19T07:18:06;8.70;99.90
23467;DHT22;59740;47.696;11.746;2023-11-19T07:20:34;8.80;99.90
23467;DHT22;59740;47.696;11.746;2023-11-19T07:23:03;8.80;99.90
23467;DHT22;59740;47.696;11.746;2023-11-19T07:25:31;8.90;99.90
23467;DHT22;59740;47.696;11.746;2023-11-19T07:28:02;8.90;99.90
23467;DHT22;59740;47.696;11.746;2023-11-19T07:30:32;8.90;99.90
23467;DHT22;59740;47.696;11.746;2023-11-19T07:33:02;9.00;99.90
23467;DHT22;59740;47.696;11.746;2023-11-19T07:35:31;9.00;99.90
23467;DHT22;59740;47.696;11.746;2023-11-19T07:38:00;9.10;99.90
23467;DHT22;59740;47.696;11.746;2023-11-19T07:40:29;9.10;99.90
23467;DHT22;59740;47.696;11.746;2023-11-19T07:42:58;9.10;99.90
23467;DHT22;59740;47.696;11.746;2023-11-19T07:45:26;9.20;99.90
23467;DHT22;59740;47.696;11.746;2023-11-19T07:47:55;9.30;99.90
23467;DHT22;59740;47.696;11.746;2023-11-19T07:50:25;9.30;99.90
23467;DHT22;59740;47.696;11.746;2023-11-19T07:52:54;9.30;99.90
23467;DHT22;59740;47.696;11.746;2023-11-19T07:55:22;9.30;99.90
23467;DHT22;59740;47.696;11.746;2023-11-19T07:57:51;9.30;99.90
23467;DHT22;59740;47.696;11.746;2023-11-19T08:00:19;9.40;99.90
23467;DHT22;59740;47.696;11.746;2023-11-19T08:02:48;9.40;99.90
23467;DHT22;59740;47.696;11.746;2023-11-19T08:05:17;9.50;99.90
23467;DHT22;59740;47.696;11.746;2023-11-19T08:07:47;9.50;99.90
23467;DHT22;59740;47.696;11.746;2023-11-19T08:10:16;9.50;99.90
23467;DHT22;59740;47.696;11.746;2023-11-19T08:12:44;9.50;99.90
23467;DHT22;59740;47.696;11.746;2023-11-19T08:15:13;9.60;99.90
23467;DHT22;59740;47.696;11.746;2023-11-19T08:17:42;9.60;99.90
23467;DHT22;59740;47.696;11.746;2023-11-19T08:20:11;9.60;99.90
23467;DHT22;59740;47.696;11.746;2023-11-19T08:22:40;9.60;99.90
23467;DHT22;59740;47.696;11.746;2023-11-19T08:25:10;9.70;99.90
23467;DHT22;59740;47.696;11.746;2023-11-19T08:27:38;9.70;99.90
23467;DHT22;59740;47.696;11.746;2023-11-19T08:30:07;9.70;99.90
23467;DHT22;59740;47.696;11.746;2023-11-19T08:32:37;9.70;99.90
23467;DHT22;59740;47.696;11.746;2023-11-19T08:35:06;9.70;99.90
23467;DHT22;59740;47.696;11.746;2023-11-19T08:37:35;9.70;99.90
23467;DHT22;59740;47.696;11.746;2023-11-19T08:40:05;9.70;99.90
23467;DHT22;59740;47.696;11.746;2023-11-19T08:42:36;9.70;99.90
23467;DHT22;59740;47.696;11.746;2023-11-19T08:45:08;9.70;99.90
23467;DHT22;59740;47.696;11.746;2023-11-19T08:47:38;9.80;99.90
23467;DHT22;59740;47.696;11.746;2023-11-19T08:50:08;9.80;99.90
23467;DHT22;59740;47.696;11.746;2023-11-19T08:52:37;9.80;99.90
23467;DHT22;59740;47.696;11.746;2023-11-19T08:55:06;9.80;99.90
23467;DHT22;59740;47.696;11.746;2023-11-19T08:57:38;9.80;99.90
23467;DHT22;59740;47.696;11.746;2023-11-19T09:00:07;9.90;99.90
23467;DHT22;59740;47.696;11.746;2023-11-19T09:02:36;9.90;99.90
23467;DHT22;59740;47.696;11.746;2023-11-19T09:05:06;9.90;99.90
23467;DHT22;59740;47.696;11.746;2023-11-19T09:07:35;10.00;99.90
23467;DHT22;59740;47.696;11.746;2023-11-19T09:10:05;10.00;99.90
23467;DHT22;59740;47.696;11.746;2023-11-19T09:12:37;10.00;99.90
23467;DHT22;59740;47.696;11.746;2023-11-19T09:15:06;10.00;99.90
23467;DHT22;59740;47.696;11.746;2023-11-19T09:17:38;10.00;99.90
23467;DHT22;59740;47.696;11.746;2023-11-19T09:20:07;10.10;99.90
23467;DHT22;59740;47.696;11.746;2023-11-19T09:22:39;10.10;99.90
23467;DHT22;59740;47.696;11.746;2023-11-19T09:25:08;10.10;99.90
23467;DHT22;59740;47.696;11.746;2023-11-19T09:27:38;10.20;99.90
23467;DHT22;59740;47.696;11.746;2023-11-19T09:30:07;10.20;99.90
23467;DHT22;59740;47.696;11.746;2023-11-19T09:32:36;10.20;99.90
23467;DHT22;59740;47.696;11.746;2023-11-19T09:35:06;10.30;99.90
23467;DHT22;59740;47.696;11.746;2023-11-19T09:37:35;10.30;99.90
23467;DHT22;59740;47.696;11.746;2023-11-19T09:40:05;10.30;99.90
23467;DHT22;59740;47.696;11.746;2023-11-19T09:42:42;10.30;99.90
23467;DHT22;59740;47.696;11.746;2023-11-19T09:45:14;10.30;99.90
23467;DHT22;59740;47.696;11.746;2023-11-19T09:47:44;10.40;99.90
23467;DHT22;59740;47.696;11.746;2023-11-19T09:50:17;10.40;99.90
23467;DHT22;59740;47.696;11.746;2023-11-19T09:52:47;10.50;99.90
23467;DHT22;59740;47.696;11.746;2023-11-19T09:55:15;10.50;99.90
23467;DHT22;59740;47.696;11.746;2023-11-19T09:57:47;10.50;99.90
23467;DHT22;59740;47.696;11.746;2023-11-19T10:00:18;10.60;99.90
23467;DHT22;59740;47.696;11.746;2023-11-19T10:02:48;10.60;99.90
23467;DHT22;59740;47.696;11.746;2023-11-19T10:05:20;10.60;99.90
23467;DHT22;59740;47.696;11.746;2023-11-19T10:07:50;10.70;99.90
23467;DHT22;59740;47.696;11.746;2023-11-19T10:10:19;10.70;99.90
23467;DHT22;59740;47.696;11.746;2023-11-19T10:12:51;10.70;99.90
23467;DHT22;59740;47.696;11.746;2023-11-19T10:15:23;10.80;99.90
23467;DHT22;59740;47.696;11.746;2023-11-19T10:17:55;10.80;99.90
23467;DHT22;59740;47.696;11.746;2023-11-19T10:20:24;10.80;99.90
23467;DHT22;59740;47.696;11.746;2023-11-19T10:22:53;10.80;99.90
23467;DHT22;59740;47.696;11.746;2023-11-19T10:25:22;10.80;99.90
23467;DHT22;59740;47.696;11.746;2023-11-19T10:27:53;10.90;99.90
23467;DHT22;59740;47.696;11.746;2023-11-19T10:30:23;10.90;99.90
23467;DHT22;59740;47.696;11.746;2023-11-19T10:33:05;10.90;99.90
23467;DHT22;59740;47.696;11.746;2023-11-19T10:35:35;10.90;99.90
23467;DHT22;59740;47.696;11.746;2023-11-19T10:38:13;10.80;99.90
23467;DHT22;59740;47.696;11.746;2023-11-19T10:40:43;10.90;99.90
23467;DHT22;59740;47.696;11.746;2023-11-19T10:43:13;10.90;99.90
23467;DHT22;59740;47.696;11.746;2023-11-19T10:45:41;10.90;99.90
23467;DHT22;59740;47.696;11.746;2023-11-19T10:48:10;10.90;99.90
23467;DHT22;59740;47.696;11.746;2023-11-19T10:50:42;10.90;99.90
23467;DHT22;59740;47.696;11.746;2023-11-19T10:53:12;10.90;99.90
23467;DHT22;59740;47.696;11.746;2023-11-19T10:55:41;10.90;99.90
23467;DHT22;59740;47.696;11.746;2023-11-19T10:58:16;10.90;99.90
23467;DHT22;59740;47.696;11.746;2023-11-19T11:00:47;11.00;99.90
23467;DHT22;59740;47.696;11.746;2023-11-19T11:03:17;11.00;99.90
23467;DHT22;59740;47.696;11.746;2023-11-19T11:05:47;11.00;99.90
23467;DHT22;59740;47.696;11.746;2023-11-19T11:08:16;11.00;99.90
23467;DHT22;59740;47.696;11.746;2023-11-19T11:10:50;11.00;99.90
23467;DHT22;59740;47.696;11.746;2023-11-19T11:13:26;11.00;99.90
23467;DHT22;59740;47.696;11.746;2023-11-19T11:15:57;10.90;99.90
23467;DHT22;59740;47.696;11.746;2023-11-19T11:18:26;11.00;99.90
23467;DHT22;59740;47.696;11.746;2023-11-19T11:20:58;11.00;99.90
23467;DHT22;59740;47.696;11.746;2023-11-19T11:23:54;11.00;99.90
23467;DHT22;59740;47.696;11.746;2023-11-19T11:26:40;11.00;99.90
23467;DHT22;59740;47.696;11.746;2023-11-19T11:29:23;10.90;99.90
23467;DHT22;59740;47.696;11.746;2023-11-19T11:32:01;10.90;99.90
23467;DHT22;59740;47.696;11.746;2023-11-19T11:34:50;11.00;99.90
23467;DHT22;59740;47.696;11.746;2023-11-19T11:37:29;11.00;99.90
23467;DHT22;59740;47.696;11.746;2023-11-19T11:39:59;11.00;99.90
23467;DHT22;59740;47.696;11.746;2023-11-19T11:42:33;11.00;99.90
23467;DHT22;59740;47.696;11.746;2023-11-19T11:45:05;11.00;99.90
23467;DHT22;59740;47.696;11.746;2023-11-19T11:48:11;11.00;99.90
23467;DHT22;59740;47.696;11.746;2023-11-19T11:50:48;11.00;99.90
23467;DHT22;59740;47.696;11.746;2023-11-19T11:53:19;11.00;99.90
23467;DHT22;59740;47.696;11.746;2023-11-19T11:55:59;11.10;99.90
23467;DHT22;59740;47.696;11.746;2023-11-19T11:58:32;11.10;99.90
23467;DHT22;59740;47.696;11.746;2023-11-19T12:01:04;11.10;99.90
23467;DHT22;59740;47.696;11.746;2023-11-19T12:03:33;11.10;99.90
23467;DHT22;59740;47.696;11.746;2023-11-19T12:06:03;11.10;99.90
23467;DHT22;59740;47.696;11.746;2023-11-19T12:08:34;11.10;99.90
23467;DHT22;59740;47.696;11.746;2023-11-19T12:11:19;11.20;99.90
23467;DHT22;59740;47.696;11.746;2023-11-19T12:13:56;11.20;99.90
23467;DHT22;59740;47.696;11.746;2023-11-19T12:16:28;11.20;99.90
23467;DHT22;59740;47.696;11.746;2023-11-19T12:19:02;11.20;99.90
23467;DHT22;59740;47.696;11.746;2023-11-19T12:21:32;11.20;99.90
23467;DHT22;59740;47.696;11.746;2023-11-19T12:24:05;11.20;99.90
23467;DHT22;59740;47.696;11.746;2023-11-19T12:26:37;11.20;99.90
23467;DHT22;59740;47.696;11.746;2023-11-19T12:29:06;11.20;99.90
23467;DHT22;59740;47.696;11.746;2023-11-19T12:31:37;11.30;99.90
23467;DHT22;59740;47.696;11.746;2023-11-19T12:34:09;11.30;99.90
23467;DHT22;59740;47.696;11.746;2023-11-19T12:36:41;11.30;99.90
23467;DHT22;59740;47.696;11.746;2023-11-19T12:39:10;11.30;99.90
23467;DHT22;59740;47.696;11.746;2023-11-19T12:41:53;11.30;99.90
23467;DHT22;59740;47.696;11.746;2023-11-19T12:44:22;11.40;99.90
23467;DHT22;59740;47.696;11.746;2023-11-19T12:47:03;11.30;99.90
23467;DHT22;59740;47.696;11.746;2023-11-19T12:49:32;11.40;99.90
23467;DHT22;59740;47.696;11.746;2023-11-19T12:52:00;11.40;99.90
23467;DHT22;59740;47.696;11.746;2023-11-19T12:54:33;11.40;99.90
23467;DHT22;59740;47.696;11.746;2023-11-19T12:57:02;11.40;99.90
23467;DHT22;59740;47.696;11.746;2023-11-19T12:59:32;11.40;99.90
23467;DHT22;59740;47.696;11.746;2023-11-19T13:02:02;11.40;99.90
23467;DHT22;59740;47.696;11.746;2023-11-19T13:04:33;11.40;99.90
23467;DHT22;59740;47.696;11.746;2023-11-19T13:07:02;11.40;99.90
23467;DHT22;59740;47.696;11.746;2023-11-19T13:09:33;11.40;99.90
23467;DHT22;59740;47.696;11.746;2023-11-19T13:12:12;11.40;99.90
23467;DHT22;59740;47.696;11.746;2023-11-19T13:14:41;11.30;99.90
23467;DHT22;59740;47.696;11.746;2023-11-19T13:17:16;11.30;99.90
23467;DHT22;59740;47.696;11.746;2023-11-19T13:19:47;11.30;99.90
23467;DHT22;59740;47.696;11.746;2023-11-19T13:22:18;11.40;99.90
23467;DHT22;59740;47.696;11.746;2023-11-19T13:24:46;11.40;99.90
23467;DHT22;59740;47.696;11.746;2023-11-19T13:27:15;11.30;99.90
23467;DHT22;59740;47.696;11.746;2023-11-19T13:29:43;11.30;99.90
23467;DHT22;59740;47.696;11.746;2023-11-19T13:32:12;11.40;99.90
23467;DHT22;59740;47.696;11.746;2023-11-19T13:34:42;11.40;99.90
23467;DHT22;59740;47.696;11.746;2023-11-19T13:37:10;11.40;99.90
23467;DHT22;59740;47.696;11.746;2023-11-19T13:39:41;11.40;99.90
23467;DHT22;59740;47.696;11.746;2023-11-19T13:42:10;11.40;99.90
23467;DHT22;59740;47.696;11.746;2023-11-19T13:44:40;11.40;99.90
23467;DHT22;59740;47.696;11.746;2023-11-19T13:47:09;11.40;99.90
23467;DHT22;59740;47.696;11.746;2023-11-19T13:49:38;11.30;99.90
23467;DHT22;59740;47.696;11.746;2023-11-19T13:52:08;11.40;99.90
23467;DHT22;59740;47.696;11.746;2023-11-19T13:54:36;11.30;99.90
23467;DHT22;59740;47.696;11.746;2023-11-19T13:57:05;11.30;99.90
23467;DHT22;59740;47.696;11.746;2023-11-19T13:59:39;11.40;99.90
23467;DHT22;59740;47.696;11.746;2023-11-19T14:02:08;11.40;99.90
23467;DHT22;59740;47.696;11.746;2023-11-19T14:04:37;11.40;99.90
23467;DHT22;59740;47.696;11.746;2023-11-19T14:07:05;11.40;99.90
23467;DHT22;59740;47.696;11.746;2023-11-19T14:09:35;11.30;99.90
23467;DHT22;59740;47.696;11.746;2023-11-19T14:12:04;11.40;99.90
23467;DHT22;59740;47.696;11.746;2023-11-19T14:14:33;11.30;99.90
23467;DHT22;59740;47.696;11.746;2023-11-19T14:17:02;11.30;99.90
23467;DHT22;59740;47.696;11.746;2023-11-19T14:19:33;11.30;99.90
23467;DHT22;59740;47.696;11.746;2023-11-19T14:22:02;11.40;99.90
23467;DHT22;59740;47.696;11.746;2023-11-19T14:24:31;11.50;99.90
23467;DHT22;59740;47.696;11.746;2023-11-19T14:27:00;11.50;99.90
23467;DHT22;59740;47.696;11.746;2023-11-19T14:29:29;11.50;99.90
23467;DHT22;59740;47.696;11.746;2023-11-19T14:31:57;11.50;99.90
23467;DHT22;59740;47.696;11.746;2023-11-19T14:34:26;11.40;99.90
23467;DHT22;59740;47.696;11.746;2023-11-19T14:36:55;11.50;99.90
23467;DHT22;59740;47.696;11.746;2023-11-19T14:39:24;11.50;99.90
23467;DHT22;59740;47.696;11.746;2023-11-19T14:41:52;11.50;99.90
23467;DHT22;59740;47.696;11.746;2023-11-19T14:44:26;11.50;99.90
23467;DHT22;59740;47.696;11.746;2023-11-19T14:46:56;11.50;99.90
23467;DHT22;59740;47.696;11.746;2023-11-19T14:49:25;11.50;99.90
23467;DHT22;59740;47.696;11.746;2023-11-19T14:51:54;11.50;99.90
23467;DHT22;59740;47.696;11.746;2023-11-19T14:54:23;11.50;99.90
23467;DHT22;59740;47.696;11.746;2023-11-19T14:56:53;11.50;99.90
23467;DHT22;59740;47.696;11.746;2023-11-19T14:59:21;11.50;99.90
23467;DHT22;59740;47.696;11.746;2023-11-19T15:01:51;11.50;99.90
23467;DHT22;59740;47.696;11.746;2023-11-19T15:04:20;11.50;99.90
23467;DHT22;59740;47.696;11.746;2023-11-19T15:06:48;11.50;99.90
23467;DHT22;59740;47.696;11.746;2023-11-19T15:09:17;11.50;99.90
23467;DHT22;59740;47.696;11.746;2023-11-19T15:11:46;11.50;99.90
23467;DHT22;59740;47.696;11.746;2023-11-19T15:14:14;11.50;99.90
23467;DHT22;59740;47.696;11.746;2023-11-19T15:16:46;11.50;99.90
23467;DHT22;59740;47.696;11.746;2023-11-19T15:19:19;11.50;99.90
23467;DHT22;59740;47.696;11.746;2023-11-19T15:21:48;11.50;99.90
23467;DHT22;59740;47.696;11.746;2023-11-19T15:24:17;11.50;99.90
23467;DHT22;59740;47.696;11.746;2023-11-19T15:26:45;11.50;99.90
23467;DHT22;59740;47.696;11.746;2023-11-19T15:29:14;11.50;99.90
23467;DHT22;59740;47.696;11.746;2023-11-19T15:31:42;11.40;99.90
23467;DHT22;59740;47.696;11.746;2023-11-19T15:34:11;11.40;99.90
23467;DHT22;59740;47.696;11.746;2023-11-19T15:36:41;11.40;99.90
23467;DHT22;59740;47.696;11.746;2023-11-19T15:39:11;11.40;99.90
23467;DHT22;59740;47.696;11.746;2023-11-19T15:41:40;11.40;99.90
23467;DHT22;59740;47.696;11.746;2023-11-19T15:44:09;11.50;99.90